Time;durP1;ratioP1;P1;durP2;ratioP2;P2;SDS_P1;SDS_P2;PMS_P1;PMS_P2;Temp;Humidity;BMP_temperature;BMP_pressure;BME280_temperature;BME280_humidity;BME280_pressure;Samples;Min_cycle;Max_cycle;Signal;HPM_P1;HPM_P2
2023/03/30 00:00:38;;;;;;;12.88;7.25;;;11.30;99.90;;;;;;4765969;30;20051;-81
2023/03/30 00:03:04;;;;;;;10.77;7.65;;;11.30;99.90;;;;;;4765978;30;20506;-82
2023/03/30 00:05:30;;;;;;;11.13;6.88;;;11.40;99.90;;;;;;4751016;30;20051;-82
2023/03/30 00:07:56;;;;;;;8.98;6.43;;;11.30;99.90;;;;;;4769339;30;20079;-81
2023/03/30 00:10:22;;;;;;;9.15;6.90;;;11.30;99.90;;;;;;4753790;30;20039;-81
2023/03/30 00:12:52;;;;;;;7.95;6.15;;;11.40;99.90;;;;;;4753865;30;20051;-82
2023/03/30 00:15:20;;;;;;;9.88;5.85;;;11.30;99.90;;;;;;4754194;30;20190;-81
2023/03/30 00:17:46;;;;;;;9.80;6.25;;;11.40;99.90;;;;;;4769144;30;20051;-82
2023/03/30 00:20:13;;;;;;;7.30;5.30;;;11.40;99.90;;;;;;4750269;30;20048;-81
2023/03/30 00:22:43;;;;;;;6.35;4.93;;;11.50;99.90;;;;;;4749723;30;20127;-82
2023/03/30 00:25:12;;;;;;;7.30;5.00;;;11.40;99.90;;;;;;4753666;30;20433;-82
2023/03/30 00:27:39;;;;;;;13.50;6.03;;;11.50;99.90;;;;;;4753191;30;20055;-82
2023/03/30 00:30:07;;;;;;;6.63;5.00;;;11.50;99.90;;;;;;4752385;30;20052;-81
2023/03/30 00:32:33;;;;;;;8.63;5.47;;;11.40;99.90;;;;;;4752519;30;20447;-82
2023/03/30 00:35:00;;;;;;;7.40;4.82;;;11.40;99.90;;;;;;4768848;30;20055;-81
2023/03/30 00:37:26;;;;;;;10.27;5.35;;;11.50;99.90;;;;;;4752578;30;20056;-82
2023/03/30 00:39:52;;;;;;;11.52;4.95;;;11.50;99.90;;;;;;4767730;30;20047;-82
2023/03/30 00:42:20;;;;;;;7.13;5.22;;;11.40;99.90;;;;;;4768394;30;20136;-81
2023/03/30 00:45:20;;;;;;;6.90;5.05;;;11.50;99.90;;;;;;4754566;30;20428;-81
2023/03/30 00:47:50;;;;;;;7.50;5.25;;;11.40;99.90;;;;;;4754400;30;20126;-82
2023/03/30 00:50:20;;;;;;;8.40;5.18;;;11.40;99.90;;;;;;4753642;30;20079;-82
2023/03/30 00:52:51;;;;;;;8.85;4.93;;;11.40;99.90;;;;;;4769022;30;20059;-82
2023/03/30 00:55:19;;;;;;;5.68;4.80;;;11.40;99.90;;;;;;4768794;30;20059;-82
2023/03/30 00:57:46;;;;;;;8.48;5.00;;;11.40;99.90;;;;;;4753180;30;20122;-82
2023/03/30 01:00:13;;;;;;;5.93;4.75;;;11.40;99.90;;;;;;4767639;30;20040;-82
2023/03/30 01:02:55;;;;;;;6.65;5.10;;;11.30;99.90;;;;;;4752695;30;20092;-81
2023/03/30 01:05:23;;;;;;;6.85;5.32;;;11.30;99.90;;;;;;4754107;30;20486;-81
2023/03/30 01:07:50;;;;;;;9.68;4.65;;;11.40;99.90;;;;;;4765898;30;20071;-82
2023/03/30 01:10:16;;;;;;;7.20;5.05;;;11.40;99.90;;;;;;4751597;30;20055;-81
2023/03/30 01:12:42;;;;;;;9.77;5.70;;;11.40;99.90;;;;;;4751379;30;21804;-81
2023/03/30 01:15:09;;;;;;;8.70;5.03;;;11.30;99.90;;;;;;4754158;30;20044;-81
2023/03/30 01:17:48;;;;;;;9.15;4.88;;;11.30;99.90;;;;;;4767909;29;20859;-82
2023/03/30 01:20:51;;;;;;;12.07;4.93;;;11.30;99.90;;;;;;4753930;30;20055;-81
2023/03/30 01:23:51;;;;;;;7.10;4.68;;;11.30;99.90;;;;;;4752931;30;20065;-82
2023/03/30 01:26:38;;;;;;;7.40;5.03;;;11.30;99.90;;;;;;4753975;30;21611;-82
2023/03/30 01:29:16;;;;;;;8.70;5.18;;;11.30;99.90;;;;;;4753385;30;20051;-80
2023/03/30 01:32:28;;;;;;;9.63;5.40;;;11.30;99.90;;;;;;4753146;30;20579;-82
2023/03/30 01:35:07;;;;;;;6.90;4.45;;;11.30;99.90;;;;;;4753839;30;20052;-81
2023/03/30 01:38:15;;;;;;;8.90;4.70;;;11.40;99.90;;;;;;4752045;30;20431;-82
2023/03/30 01:41:05;;;;;;;8.10;4.70;;;11.40;99.90;;;;;;4710395;30;20092;-80
2023/03/30 01:43:45;;;;;;;10.90;4.93;;;11.40;99.90;;;;;;4748916;30;20391;-81
2023/03/30 01:46:29;;;;;;;9.55;4.53;;;11.40;99.90;;;;;;4753497;30;20389;-82
2023/03/30 01:49:14;;;;;;;10.93;4.60;;;11.50;99.90;;;;;;4752688;30;20102;-81
2023/03/30 01:51:49;;;;;;;8.07;4.70;;;11.50;99.90;;;;;;4754245;30;20099;-81
2023/03/30 01:54:23;;;;;;;7.93;4.03;;;11.60;99.90;;;;;;4754002;30;20044;-81
2023/03/30 01:56:57;;;;;;;7.07;3.80;;;11.60;99.90;;;;;;4768322;30;20060;-82
2023/03/30 01:59:33;;;;;;;6.68;3.78;;;11.50;99.90;;;;;;4753680;30;20051;-80
2023/03/30 02:02:02;;;;;;;7.25;4.20;;;11.70;99.90;;;;;;4766058;30;20406;-80
2023/03/30 02:04:32;;;;;;;8.68;3.65;;;11.70;99.90;;;;;;4769290;30;20082;-81
2023/03/30 02:07:12;;;;;;;6.82;4.25;;;11.70;99.90;;;;;;4752929;30;20127;-81
2023/03/30 02:09:40;;;;;;;8.20;4.15;;;11.70;99.90;;;;;;4770239;30;20054;-81
2023/03/30 02:12:08;;;;;;;10.88;4.07;;;11.60;99.90;;;;;;4755042;30;20083;-81
2023/03/30 02:14:36;;;;;;;7.07;3.63;;;11.50;99.90;;;;;;4752996;30;20069;-82
2023/03/30 02:17:23;;;;;;;7.88;4.10;;;11.50;99.90;;;;;;4768053;30;20074;-81
2023/03/30 02:19:50;;;;;;;5.75;3.88;;;11.50;99.90;;;;;;4753246;30;20100;-80
2023/03/30 02:22:18;;;;;;;5.65;4.00;;;11.50;99.90;;;;;;4754088;30;20063;-82
2023/03/30 02:24:46;;;;;;;8.45;3.70;;;11.60;99.90;;;;;;4752602;30;20048;-82
2023/03/30 02:27:12;;;;;;;8.80;3.45;;;11.50;99.90;;;;;;4769249;30;20094;-81
2023/03/30 02:29:42;;;;;;;9.00;3.53;;;11.60;99.90;;;;;;4752362;30;20470;-82
2023/03/30 02:32:21;;;;;;;8.00;3.72;;;11.60;99.90;;;;;;4769412;30;20047;-82
2023/03/30 02:35:24;;;;;;;9.15;3.22;;;11.60;99.90;;;;;;4769253;30;20047;-81
2023/03/30 02:38:14;;;;;;;5.63;3.53;;;11.60;99.90;;;;;;4766435;30;20047;-80
2023/03/30 02:40:58;;;;;;;6.68;3.28;;;11.60;99.90;;;;;;4753760;30;20051;-81
2023/03/30 02:43:30;;;;;;;5.05;3.55;;;11.70;99.90;;;;;;4765352;30;20048;-82
2023/03/30 02:45:58;;;;;;;7.80;3.83;;;11.70;99.90;;;;;;4750627;30;20423;-82
2023/03/30 02:48:32;;;;;;;6.18;3.83;;;11.60;99.90;;;;;;4751374;30;20047;-81
2023/03/30 02:51:24;;;;;;;6.05;3.13;;;11.60;99.90;;;;;;4767499;30;20193;-82
2023/03/30 02:54:11;;;;;;;7.25;3.42;;;11.70;99.90;;;;;;4767170;30;20079;-80
2023/03/30 02:57:05;;;;;;;5.00;3.08;;;11.70;99.90;;;;;;4751319;30;20048;-82
2023/03/30 02:59:45;;;;;;;5.47;3.58;;;11.60;99.90;;;;;;4766605;30;20578;-82
2023/03/30 03:02:25;;;;;;;8.13;3.92;;;11.60;99.90;;;;;;4765762;30;20646;-80
2023/03/30 03:04:52;;;;;;;8.48;3.20;;;11.50;99.90;;;;;;4750117;30;20075;-82
2023/03/30 03:07:20;;;;;;;5.05;2.85;;;11.50;99.90;;;;;;4749954;30;20805;-82
2023/03/30 03:09:46;;;;;;;6.30;2.88;;;11.50;99.90;;;;;;4765446;30;20039;-81
2023/03/30 03:12:11;;;;;;;9.88;2.92;;;11.50;99.90;;;;;;4766712;30;20052;-81
2023/03/30 03:14:38;;;;;;;5.88;3.38;;;11.50;99.90;;;;;;4751909;30;20052;-81
2023/03/30 03:17:04;;;;;;;4.50;3.10;;;11.50;99.90;;;;;;4765526;30;20070;-82
2023/03/30 03:19:30;;;;;;;6.82;3.15;;;11.40;99.90;;;;;;4751782;30;20496;-81
2023/03/30 03:21:55;;;;;;;5.63;2.83;;;11.50;99.90;;;;;;4767192;30;20052;-81
2023/03/30 03:24:21;;;;;;;7.32;2.65;;;11.40;99.90;;;;;;4751239;30;20100;-82
2023/03/30 03:26:47;;;;;;;8.77;2.50;;;11.40;99.90;;;;;;4751584;30;20112;-81
2023/03/30 03:29:12;;;;;;;4.22;2.35;;;11.40;99.90;;;;;;4750220;30;20051;-81
2023/03/30 03:31:38;;;;;;;9.13;3.03;;;11.40;99.90;;;;;;4750417;30;20471;-81
2023/03/30 03:34:03;;;;;;;5.10;2.60;;;11.40;99.90;;;;;;4751278;30;20044;-81
2023/03/30 03:36:29;;;;;;;6.63;2.33;;;11.40;99.90;;;;;;4747136;30;20102;-82
2023/03/30 03:38:55;;;;;;;6.95;2.78;;;11.40;99.90;;;;;;4752074;30;20052;-81
2023/03/30 03:41:21;;;;;;;4.70;2.78;;;11.40;99.90;;;;;;4754058;30;20422;-80
2023/03/30 03:43:47;;;;;;;5.97;2.33;;;11.50;99.90;;;;;;4770904;30;20055;-81
2023/03/30 03:46:13;;;;;;;6.40;2.65;;;11.50;99.90;;;;;;4766645;30;20047;-81
2023/03/30 03:48:39;;;;;;;8.85;2.45;;;11.50;99.90;;;;;;4755502;30;20048;-81
2023/03/30 03:51:05;;;;;;;8.23;2.78;;;11.60;99.90;;;;;;4770158;30;20056;-81
2023/03/30 03:53:31;;;;;;;6.15;2.80;;;11.60;99.90;;;;;;4756488;30;20044;-81
2023/03/30 03:55:57;;;;;;;9.48;3.28;;;11.70;99.90;;;;;;4770993;30;20047;-81
2023/03/30 03:58:24;;;;;;;7.78;2.80;;;11.70;99.90;;;;;;4754014;30;20062;-82
2023/03/30 04:00:50;;;;;;;6.18;2.50;;;11.70;99.90;;;;;;4753744;30;20056;-81
2023/03/30 04:03:16;;;;;;;5.93;2.90;;;11.70;99.90;;;;;;4766239;30;20054;-82
2023/03/30 04:05:42;;;;;;;10.30;2.55;;;11.70;99.90;;;;;;4767591;30;20111;-82
2023/03/30 04:08:09;;;;;;;6.40;2.53;;;12.50;99.90;;;;;;4768875;30;20059;-82
2023/03/30 04:10:39;;;;;;;6.18;2.47;;;11.80;99.90;;;;;;4770373;30;20039;-82
2023/03/30 04:13:05;;;;;;;10.00;3.60;;;11.80;99.90;;;;;;4770165;30;20043;-82
2023/03/30 04:15:31;;;;;;;10.15;2.90;;;11.90;99.90;;;;;;4753708;30;20062;-82
2023/03/30 04:17:57;;;;;;;4.20;1.92;;;11.90;99.90;;;;;;4750743;30;20104;-81
2023/03/30 04:20:25;;;;;;;6.10;2.20;;;11.90;99.90;;;;;;4751700;30;20507;-82
2023/03/30 04:22:52;;;;;;;12.20;2.05;;;11.90;99.90;;;;;;4751921;30;20482;-83
2023/03/30 04:25:20;;;;;;;8.90;2.08;;;11.90;99.90;;;;;;4754090;30;20170;-83
2023/03/30 04:27:49;;;;;;;4.68;2.25;;;11.90;99.90;;;;;;4767526;30;20121;-83
2023/03/30 04:30:21;;;;;;;7.93;2.22;;;12.00;99.90;;;;;;4738605;30;22017;-83
2023/03/30 04:33:03;;;;;;;7.90;2.38;;;12.20;99.90;;;;;;4749938;30;20047;-85
2023/03/30 04:35:30;;;;;;;6.53;2.20;;;12.00;99.90;;;;;;4737932;30;20090;-84
2023/03/30 04:38:00;;;;;;;6.65;2.22;;;12.00;99.90;;;;;;4753277;30;20056;-84
2023/03/30 04:40:26;;;;;;;6.28;2.38;;;12.10;99.90;;;;;;4755027;30;20051;-83
2023/03/30 04:50:16;;;;;;;9.98;2.55;;;12.10;99.90;;;;;;4767756;30;20059;-85
2023/03/30 04:53:25;;;;;;;6.38;2.05;;;12.10;99.90;;;;;;4751770;30;20545;-87
2023/03/30 04:56:03;;;;;;;9.38;2.50;;;12.00;99.90;;;;;;4753090;30;20066;-84
2023/03/30 04:58:29;;;;;;;7.47;2.67;;;11.90;99.90;;;;;;4751379;30;20050;-84
2023/03/30 05:00:55;;;;;;;9.43;3.47;;;12.20;99.90;;;;;;4766343;30;20043;-81
2023/03/30 05:03:20;;;;;;;8.35;3.15;;;12.00;99.90;;;;;;4764895;30;20047;-82
2023/03/30 05:05:56;;;;;;;11.30;3.58;;;11.90;99.90;;;;;;4766633;30;20101;-84
2023/03/30 05:08:25;;;;;;;8.02;2.83;;;11.80;99.90;;;;;;4767703;30;20062;-86
2023/03/30 05:11:03;;;;;;;5.78;2.60;;;11.80;99.90;;;;;;4753012;30;20087;-85
2023/03/30 05:13:46;;;;;;;8.63;3.38;;;11.80;99.90;;;;;;4768010;30;20113;-85
2023/03/30 05:16:11;;;;;;;6.55;2.88;;;12.20;99.90;;;;;;4752513;30;20051;-81
2023/03/30 05:18:50;;;;;;;6.30;2.72;;;11.70;99.90;;;;;;4752248;30;20047;-85
2023/03/30 05:21:15;;;;;;;8.90;3.35;;;11.70;99.90;;;;;;4767474;30;21182;-79
2023/03/30 05:23:43;;;;;;;8.82;2.55;;;11.70;99.90;;;;;;4767121;30;20043;-85
2023/03/30 05:26:09;;;;;;;7.80;3.38;;;11.20;99.90;;;;;;4750798;30;20102;-83
2023/03/30 05:28:56;;;;;;;7.43;3.17;;;11.70;99.90;;;;;;4772782;30;20075;-85
2023/03/30 05:31:49;;;;;;;9.30;2.88;;;11.80;99.90;;;;;;4753163;30;20048;-84
2023/03/30 05:34:49;;;;;;;7.93;3.30;;;11.80;99.90;;;;;;4751409;30;20056;-84
2023/03/30 05:45:27;;;;;;;9.18;2.55;;;11.80;99.90;;;;;;4766208;30;20082;-86
2023/03/30 05:58:41;;;;;;;6.88;2.28;;;11.90;99.90;;;;;;4749361;30;20047;-87
2023/03/30 06:01:08;;;;;;;5.82;1.80;;;11.90;99.90;;;;;;4752847;30;20052;-82
2023/03/30 06:03:35;;;;;;;6.82;2.17;;;12.00;99.90;;;;;;4768300;30;20050;-82
2023/03/30 06:10:21;;;;;;;6.65;1.90;;;12.00;99.90;;;;;;4748841;30;20507;-85
2023/03/30 06:14:16;;;;;;;9.90;2.40;;;12.10;99.90;;;;;;4744054;30;20291;-85
2023/03/30 06:21:42;;;;;;;6.68;1.73;;;12.10;99.90;;;;;;4709520;30;20130;-84
2023/03/30 06:28:27;;;;;;;6.50;2.03;;;11.90;99.90;;;;;;4688536;30;20676;-81
2023/03/30 06:30:53;;;;;;;7.63;2.30;;;11.90;99.90;;;;;;4684236;30;20057;-84
2023/03/30 06:52:57;;;;;;;5.55;1.70;;;12.10;99.90;;;;;;4626396;30;20055;-84
2023/03/30 07:33:56;;;;;;;12.30;2.83;;;12.40;99.90;;;;;;4731465;30;20560;-86
2023/03/30 07:41:16;;;;;;;15.93;3.65;;;12.40;99.90;;;;;;4747473;30;20428;-86
2023/03/30 07:44:47;;;;;;;15.15;2.88;;;12.50;99.90;;;;;;4668382;30;20053;-86
2023/03/30 07:48:53;;;;;;;14.05;2.65;;;12.40;99.90;;;;;;4644095;30;20061;-87
2023/03/30 07:56:12;;;;;;;17.27;3.88;;;12.40;99.90;;;;;;4676754;30;20058;-85
2023/03/30 07:59:26;;;;;;;20.47;4.73;;;12.30;99.90;;;;;;4679038;30;20108;-86
2023/03/30 08:02:51;;;;;;;20.98;4.03;;;12.30;99.90;;;;;;4647241;30;20063;-85
2023/03/30 08:06:07;;;;;;;19.33;3.70;;;12.30;99.90;;;;;;4637649;30;20625;-85
2023/03/30 08:09:11;;;;;;;16.00;3.47;;;12.30;99.90;;;;;;4647562;30;20054;-87
2023/03/30 08:17:00;;;;;;;19.00;3.60;;;12.30;99.90;;;;;;4646354;30;20547;-86
2023/03/30 08:19:25;;;;;;;;;;;12.20;99.90;;;;;;4646840;30;20067;-83
2023/03/30 08:21:51;;;;;;;18.65;3.40;;;12.20;99.90;;;;;;4685861;30;19937;-86
2023/03/30 08:24:17;;;;;;;20.60;4.63;;;12.90;99.90;;;;;;4722096;30;20088;-84
2023/03/30 08:26:48;;;;;;;19.27;3.58;;;12.20;99.90;;;;;;4729602;30;20059;-84
2023/03/30 08:29:36;;;;;;;21.95;3.63;;;12.20;99.90;;;;;;4730721;30;20049;-86
2023/03/30 08:32:01;;;;;;;29.65;6.20;;;12.20;99.90;;;;;;4747891;30;20044;-84
2023/03/30 08:34:27;;;;;;;19.92;3.53;;;12.30;99.90;;;;;;4749162;30;20123;-86
2023/03/30 08:36:53;;;;;;;23.42;4.15;;;12.20;99.90;;;;;;4744208;30;20045;-85
2023/03/30 08:39:19;;;;;;;22.70;3.65;;;12.50;99.90;;;;;;4751477;30;20113;-85
2023/03/30 08:42:10;;;;;;;22.05;4.65;;;12.70;99.90;;;;;;4734002;30;20072;-85
2023/03/30 08:44:45;;;;;;;28.33;5.43;;;12.10;99.90;;;;;;4747310;30;20052;-85
2023/03/30 08:47:15;;;;;;;28.83;5.40;;;12.10;99.90;;;;;;4730927;30;20044;-84
2023/03/30 08:49:55;;;;;;;29.25;5.28;;;12.10;99.90;;;;;;4734767;30;20059;-84
2023/03/30 08:52:23;;;;;;;27.48;5.03;;;12.40;99.90;;;;;;4754051;30;20408;-86
2023/03/30 08:54:50;;;;;;;21.77;4.90;;;12.10;99.90;;;;;;4733611;30;20065;-84
2023/03/30 08:57:16;;;;;;;17.00;3.55;;;12.20;99.90;;;;;;4742078;30;20051;-83
2023/03/30 08:59:59;;;;;;;21.92;4.28;;;12.40;99.90;;;;;;4753068;30;20104;-83
2023/03/30 09:02:32;;;;;;;19.52;4.57;;;12.30;99.90;;;;;;4768502;30;20116;-84
2023/03/30 09:05:07;;;;;;;24.58;4.65;;;12.40;99.90;;;;;;4767214;30;20574;-84
2023/03/30 09:07:37;;;;;;;18.75;3.42;;;12.40;99.90;;;;;;4767451;30;20039;-84
2023/03/30 09:10:09;;;;;;;20.80;3.53;;;12.70;99.90;;;;;;4766356;30;20086;-84
2023/03/30 09:12:51;;;;;;;18.02;4.20;;;12.50;99.90;;;;;;4766724;30;20043;-84
2023/03/30 09:15:34;;;;;;;19.20;3.88;;;12.60;99.90;;;;;;4752044;30;20081;-83
2023/03/30 09:18:18;;;;;;;23.55;5.20;;;12.90;99.90;;;;;;4761551;30;20055;-84
2023/03/30 09:20:46;;;;;;;19.08;5.57;;;13.10;99.90;;;;;;4752380;30;20047;-84
2023/03/30 09:23:15;;;;;;;16.23;3.25;;;13.50;99.90;;;;;;4737507;30;20040;-84
2023/03/30 09:26:16;;;;;;;20.20;3.65;;;13.50;99.90;;;;;;4737904;30;20036;-86
2023/03/30 09:29:02;;;;;;;24.70;4.85;;;13.50;99.90;;;;;;4745505;30;20460;-83
2023/03/30 09:31:53;;;;;;;13.15;2.83;;;13.40;99.90;;;;;;4766132;30;20556;-83
2023/03/30 09:34:47;;;;;;;18.95;4.10;;;13.40;99.90;;;;;;4750675;30;20082;-85
2023/03/30 09:37:17;;;;;;;17.17;3.28;;;13.50;99.90;;;;;;4729207;30;20219;-83
2023/03/30 09:39:47;;;;;;;17.25;3.25;;;13.70;99.90;;;;;;4767574;30;20086;-84
2023/03/30 09:42:46;;;;;;;18.88;4.13;;;14.10;99.90;;;;;;4751110;30;20495;-84
2023/03/30 09:45:26;;;;;;;20.27;3.50;;;14.30;99.90;;;;;;4714307;30;20400;-84
2023/03/30 09:47:53;;;;;;;11.68;3.08;;;15.40;99.90;;;;;;4765207;30;20514;-84
2023/03/30 09:50:28;;;;;;;12.93;3.53;;;14.70;99.90;;;;;;4765706;30;20040;-85
2023/03/30 09:52:56;;;;;;;18.02;3.72;;;14.20;99.90;;;;;;4752374;30;20096;-85
2023/03/30 09:55:31;;;;;;;10.85;3.05;;;14.00;99.90;;;;;;4768669;30;20065;-86
2023/03/30 09:58:16;;;;;;;14.02;2.97;;;14.00;99.90;;;;;;4752440;30;20078;-85
2023/03/30 10:00:42;;;;;;;17.95;3.78;;;13.80;99.90;;;;;;4762051;30;20054;-86
2023/03/30 10:03:19;;;;;;;15.80;2.92;;;13.70;99.90;;;;;;4765722;30;20062;-85
2023/03/30 10:05:58;;;;;;;15.02;3.17;;;13.60;99.90;;;;;;4766368;30;20202;-84
2023/03/30 10:08:24;;;;;;;17.20;2.80;;;13.60;99.90;;;;;;4766576;30;20054;-84
2023/03/30 10:10:55;;;;;;;12.52;3.50;;;13.60;99.90;;;;;;4751704;30;20123;-85
2023/03/30 10:13:31;;;;;;;17.77;3.40;;;13.60;99.90;;;;;;4766766;30;20430;-84
2023/03/30 10:16:00;;;;;;;;;;;14.10;99.90;;;;;;4764504;30;20104;-86
2023/03/30 10:18:36;;;;;;;14.30;3.22;;;14.10;99.90;;;;;;4765328;30;19932;-85
2023/03/30 10:21:13;;;;;;;10.73;3.10;;;13.70;99.90;;;;;;4752098;30;20044;-85
2023/03/30 10:23:43;;;;;;;10.98;2.40;;;13.70;99.90;;;;;;4767978;30;20048;-84
2023/03/30 10:26:17;;;;;;;11.82;2.80;;;13.70;99.90;;;;;;4768358;30;20047;-84
2023/03/30 10:28:54;;;;;;;15.77;3.08;;;13.70;99.90;;;;;;4768337;30;20047;-86
2023/03/30 10:31:21;;;;;;;12.35;3.00;;;13.70;99.90;;;;;;4750960;30;20062;-85
2023/03/30 10:33:48;;;;;;;15.45;3.65;;;14.40;99.90;;;;;;4753671;30;20737;-84
2023/03/30 10:36:17;;;;;;;14.93;3.22;;;14.30;99.90;;;;;;4751609;30;20051;-84
2023/03/30 10:38:43;;;;;;;17.98;3.17;;;13.70;99.90;;;;;;4750969;30;20090;-85
2023/03/30 10:41:21;;;;;;;14.63;2.50;;;14.80;99.90;;;;;;4766678;30;20048;-85
2023/03/30 10:43:48;;;;;;;12.77;2.80;;;13.90;99.90;;;;;;4764647;30;20043;-86
2023/03/30 10:46:17;;;;;;;18.95;3.58;;;14.10;99.90;;;;;;4749773;30;20055;-85
2023/03/30 10:49:02;;;;;;;13.30;3.20;;;14.30;99.90;;;;;;4766495;30;20054;-84
2023/03/30 10:51:40;;;;;;;18.63;2.78;;;14.30;99.90;;;;;;4764372;30;20036;-85
2023/03/30 10:54:11;;;;;;;13.45;2.90;;;14.30;99.90;;;;;;4750650;30;20056;-84
2023/03/30 10:56:48;;;;;;;15.43;2.75;;;14.10;99.90;;;;;;4749825;30;20138;-84
2023/03/30 10:59:36;;;;;;;12.65;2.88;;;14.10;99.90;;;;;;4767716;30;20130;-85
2023/03/30 11:02:21;;;;;;;17.42;3.90;;;14.00;99.90;;;;;;4763886;30;20554;-85
2023/03/30 11:04:54;;;;;;;15.57;2.60;;;13.90;99.90;;;;;;4747984;30;20047;-84
2023/03/30 11:07:44;;;;;;;13.77;3.10;;;14.10;99.90;;;;;;4768642;30;20059;-85
2023/03/30 11:10:20;;;;;;;16.48;2.92;;;13.90;99.90;;;;;;4751662;30;20503;-86
2023/03/30 11:12:48;;;;;;;;;;;13.90;99.90;;;;;;4762165;30;20396;-85
2023/03/30 11:15:25;;;;;;;13.65;2.88;;;13.90;99.90;;;;;;4764208;30;19926;-85
2023/03/30 11:18:03;;;;;;;17.88;3.22;;;14.60;99.90;;;;;;4764558;30;20067;-86
2023/03/30 11:20:38;;;;;;;18.73;3.45;;;14.10;99.90;;;;;;4750192;30;20161;-87
2023/03/30 11:23:09;;;;;;;13.87;3.57;;;14.30;99.90;;;;;;4765675;30;20047;-84
2023/03/30 11:25:52;;;;;;;18.33;3.30;;;14.30;99.90;;;;;;4763856;30;20047;-85
2023/03/30 11:28:21;;;;;;;18.45;3.88;;;14.50;99.90;;;;;;4749404;30;20086;-86
2023/03/30 11:30:50;;;;;;;16.42;3.38;;;14.60;99.90;;;;;;4764987;30;20036;-85
2023/03/30 11:33:34;;;;;;;18.45;4.45;;;14.70;99.90;;;;;;4766028;30;20122;-85
2023/03/30 11:36:05;;;;;;;15.15;3.47;;;14.80;99.90;;;;;;4751107;30;20048;-84
2023/03/30 11:38:46;;;;;;;20.40;4.05;;;15.00;99.90;;;;;;4736330;30;20127;-84
2023/03/30 11:41:37;;;;;;;20.75;3.30;;;15.30;99.90;;;;;;4764388;30;20097;-85
2023/03/30 11:44:04;;;;;;;27.58;4.20;;;15.70;99.90;;;;;;4751036;30;20483;-86
2023/03/30 11:46:41;;;;;;;11.82;3.13;;;15.60;99.90;;;;;;4766327;30;20083;-85
2023/03/30 11:49:22;;;;;;;16.60;3.83;;;15.60;99.90;;;;;;4749566;30;20130;-86
2023/03/30 11:52:18;;;;;;;17.15;5.05;;;15.60;99.90;;;;;;4766729;30;20048;-85
2023/03/30 11:55:19;;;;;;;21.38;4.95;;;15.00;99.90;;;;;;4763820;30;20062;-86
2023/03/30 11:58:03;;;;;;;15.23;3.50;;;15.70;99.90;;;;;;4749154;30;20476;-84
2023/03/30 12:00:33;;;;;;;20.42;4.43;;;15.50;99.90;;;;;;4765022;30;20205;-84
2023/03/30 12:03:14;;;;;;;17.23;4.03;;;15.60;99.90;;;;;;4765833;30;20055;-85
2023/03/30 12:05:41;;;;;;;16.75;4.10;;;15.80;99.90;;;;;;4754906;30;20051;-86
2023/03/30 12:08:16;;;;;;;18.40;3.92;;;16.10;99.90;;;;;;4769870;30;20502;-85
2023/03/30 12:10:46;;;;;;;15.50;3.28;;;15.60;99.90;;;;;;4767364;30;20040;-88
2023/03/30 12:13:14;;;;;;;16.27;4.05;;;16.20;99.90;;;;;;4750387;30;20408;-86
2023/03/30 12:16:04;;;;;;;14.65;2.90;;;16.30;99.90;;;;;;4770261;30;20062;-87
2023/03/30 12:19:02;;;;;;;21.23;4.28;;;15.70;99.90;;;;;;4752053;30;20134;-88
2023/03/30 12:21:37;;;;;;;19.23;5.10;;;15.40;99.90;;;;;;4767598;30;20039;-80
2023/03/30 12:24:32;;;;;;;16.65;3.90;;;15.30;99.90;;;;;;4765825;30;20051;-84
2023/03/30 12:28:05;;;;;;;13.85;4.10;;;15.20;99.90;;;;;;4765708;30;20126;-84
2023/03/30 12:31:05;;;;;;;18.67;4.82;;;15.10;99.90;;;;;;4731577;30;20051;-85
2023/03/30 12:33:42;;;;;;;18.17;3.90;;;15.20;99.90;;;;;;4714743;30;20586;-83
2023/03/30 12:37:08;;;;;;;22.10;4.50;;;15.30;99.90;;;;;;4728587;30;20522;-85
2023/03/30 12:40:24;;;;;;;19.65;5.10;;;15.50;99.90;;;;;;4709483;30;20073;-85
2023/03/30 12:43:56;;;;;;;19.45;3.92;;;15.70;99.90;;;;;;4677523;30;20062;-86
2023/03/30 13:01:43;;;;;;;21.83;4.65;;;16.20;99.90;;;;;;4638477;30;20047;-83
2023/03/30 13:04:18;;;;;;;20.27;5.55;;;16.30;99.90;;;;;;4706016;30;20057;-81
2023/03/30 13:06:58;;;;;;;;;;;16.40;99.90;;;;;;4746862;30;20052;-83
2023/03/30 13:09:26;;;;;;;18.85;4.38;;;16.30;99.90;;;;;;4746961;30;19930;-82
2023/03/30 13:11:52;;;;;;;20.63;4.03;;;16.10;99.90;;;;;;4751046;30;20142;-79
2023/03/30 13:14:38;;;;;;;22.55;4.40;;;15.90;99.90;;;;;;4765546;30;20410;-83
2023/03/30 13:17:05;;;;;;;17.60;4.03;;;15.90;99.90;;;;;;4751786;30;20980;-80
2023/03/30 13:19:36;;;;;;;17.70;4.07;;;15.70;99.90;;;;;;4764845;30;20063;-83
2023/03/30 13:22:31;;;;;;;23.13;4.38;;;16.10;99.90;;;;;;4749481;30;20060;-82
2023/03/30 13:25:19;;;;;;;13.82;3.25;;;16.00;99.90;;;;;;4766696;30;20115;-81
2023/03/30 13:27:53;;;;;;;19.95;4.32;;;15.50;99.90;;;;;;4750679;30;20078;-82
2023/03/30 13:30:19;;;;;;;19.17;4.40;;;15.60;99.90;;;;;;4750805;30;20067;-83
2023/03/30 13:32:57;;;;;;;26.42;5.60;;;15.50;99.90;;;;;;4749388;30;20135;-83
2023/03/30 13:35:57;;;;;;;19.63;4.30;;;15.50;99.90;;;;;;4766365;30;20078;-82
2023/03/30 13:38:54;;;;;;;22.15;5.78;;;15.70;99.90;;;;;;4766486;30;20043;-82
2023/03/30 13:41:43;;;;;;;20.23;4.95;;;15.90;99.90;;;;;;4748087;30;20067;-81
2023/03/30 13:44:22;;;;;;;23.73;4.45;;;15.80;99.90;;;;;;4757227;30;20058;-80
2023/03/30 13:47:19;;;;;;;19.60;4.95;;;16.00;99.90;;;;;;4765109;30;20044;-83
2023/03/30 13:50:14;;;;;;;19.08;4.03;;;16.00;99.90;;;;;;4764346;30;20052;-83
2023/03/30 13:52:44;;;;;;;17.55;4.38;;;15.90;99.90;;;;;;4765286;30;20059;-82
2023/03/30 13:55:21;;;;;;;25.48;5.50;;;15.80;99.90;;;;;;4749296;30;20044;-81
2023/03/30 13:57:47;;;;;;;23.95;4.43;;;15.80;99.90;;;;;;4764383;30;20105;-82
2023/03/30 14:04:43;;;;;;;24.13;5.00;;;15.80;99.90;;;;;;4765500;30;20102;-84
2023/03/30 14:07:52;;;;;;;17.23;4.50;;;15.70;99.90;;;;;;4761583;30;20055;-85
2023/03/30 14:10:24;;;;;;;16.45;4.15;;;15.50;99.90;;;;;;4768362;30;20055;-85
2023/03/30 14:13:15;;;;;;;22.00;4.85;;;15.80;99.90;;;;;;4761571;30;20068;-84
2023/03/30 14:57:12;;;;;;;25.90;4.47;;;14.80;99.90;;;;;;4745799;30;20086;-85
2023/03/30 15:01:09;;;;;;;24.60;4.85;;;14.70;99.90;;;;;;4692745;30;20056;-87
2023/03/30 15:03:36;;;;;;;27.20;5.55;;;14.50;99.90;;;;;;4681454;30;20075;-84
2023/03/30 16:01:54;;;;;;;29.20;6.93;;;14.20;99.90;;;;;;4713318;30;20125;-84
2023/03/30 16:05:32;;;;;;;23.95;5.53;;;14.00;99.90;;;;;;4702854;30;20091;-86
2023/03/30 16:08:53;;;;;;;28.23;6.22;;;14.10;99.90;;;;;;4690631;30;20104;-86
2023/03/30 16:15:13;;;;;;;23.90;5.75;;;13.90;99.90;;;;;;4763837;30;20419;-85
2023/03/30 16:18:21;;;;;;;24.27;5.57;;;13.90;99.90;;;;;;4735142;30;20052;-85
2023/03/30 16:21:32;;;;;;;24.50;5.60;;;13.90;99.90;;;;;;4730484;30;20098;-86
2023/03/30 16:23:58;;;;;;;23.50;5.97;;;13.80;99.90;;;;;;4733482;30;20543;-83
2023/03/30 16:26:23;;;;;;;21.00;4.43;;;13.80;99.90;;;;;;4768421;30;20051;-86
2023/03/30 16:28:51;;;;;;;23.92;5.18;;;13.70;99.90;;;;;;4752101;30;20060;-81
2023/03/30 16:31:20;;;;;;;20.40;3.97;;;13.70;99.90;;;;;;4752171;30;20044;-85
2023/03/30 16:34:37;;;;;;;28.38;5.68;;;13.60;99.90;;;;;;4763922;30;20067;-86
2023/03/30 16:37:40;;;;;;;22.48;6.30;;;14.10;99.90;;;;;;4750758;30;20128;-87
2023/03/30 16:41:17;;;;;;;22.23;5.32;;;13.60;99.90;;;;;;4769422;30;20043;-88
2023/03/30 16:44:02;;;;;;;21.50;5.38;;;13.50;99.90;;;;;;4699545;30;20536;-87
2023/03/30 16:46:43;;;;;;;21.63;4.50;;;13.50;99.90;;;;;;4720400;30;20058;-84
2023/03/30 16:49:15;;;;;;;23.33;4.82;;;13.40;99.90;;;;;;4750698;30;20080;-85
2023/03/30 16:51:41;;;;;;;20.02;6.07;;;13.30;99.90;;;;;;4752615;30;20046;-85
2023/03/30 16:54:06;;;;;;;28.80;5.47;;;13.30;99.90;;;;;;4765792;30;20102;-85
2023/03/30 16:56:32;;;;;;;24.67;5.80;;;13.30;99.90;;;;;;4750014;30;20039;-85
2023/03/30 16:58:59;;;;;;;25.08;5.95;;;13.20;99.90;;;;;;4763418;30;20054;-85
2023/03/30 17:01:26;;;;;;;22.02;4.95;;;13.20;99.90;;;;;;4765694;30;20047;-86
2023/03/30 17:03:52;;;;;;;36.75;7.07;;;13.20;99.90;;;;;;4748273;30;20138;-85
2023/03/30 17:10:12;;;;;;;24.90;6.45;;;13.10;99.90;;;;;;4769172;30;20159;-86
2023/03/30 17:13:11;;;;;;;29.60;5.97;;;13.00;99.90;;;;;;4750408;30;20047;-87
2023/03/30 17:16:27;;;;;;;35.78;7.40;;;13.00;99.90;;;;;;4770579;30;20071;-85
2023/03/30 17:30:39;;;;;;;29.63;5.28;;;12.90;99.90;;;;;;4768901;30;20062;-86
2023/03/30 17:34:03;;;;;;;29.55;5.25;;;12.80;99.90;;;;;;4767505;30;20060;-85
2023/03/30 17:36:55;;;;;;;29.23;6.68;;;12.70;99.90;;;;;;4730571;30;20044;-86
2023/03/30 17:39:35;;;;;;;25.73;6.53;;;12.80;99.90;;;;;;4717858;30;20111;-86
2023/03/30 17:43:13;;;;;;;33.85;6.28;;;12.60;99.90;;;;;;4752947;30;20082;-87
2023/03/30 17:45:40;;;;;;;27.35;5.78;;;12.70;99.90;;;;;;4750424;30;20051;-86
2023/03/30 17:48:11;;;;;;;27.85;4.93;;;13.40;99.90;;;;;;4753054;30;20507;-86